Farm Ridge, Illinois
Current Conditions -  °F | °C
As of 3:35 AM on Thursday 27 Nov 2014 (Local Time) from KVYS Reporting Station
Haze Haze  
Wind Chill: 13°   Ceiling: 6500
Heat Index: 23°   Visibility: 5mi
Dew Point: 20°   Wind: 9mph
Humidity: 87%   Direction: 300°WNW
Pressure: 30.29"   Gusts: NA
Location:  41.2419°N, 88.7998°W
Report Text: KVYS 270935Z AUTO 30008KT 5SM BR BKN065 OVC085 M05/M07 A3029 RMK AO2 T10501068
Loading
Personal Weather Stations






























Interactive Weather Map New forecast layout! Learn more

10-Day Weather Forecast

Advertisements
Track Severe Weather on mobile